createdAt,value
2017-11-18T00:00:10.328Z,0
2017-11-18T00:01:25.012Z,0
2017-11-18T00:02:10.386Z,0
2017-11-18T00:03:10.373Z,0
2017-11-18T00:04:10.381Z,0
2017-11-18T00:05:10.489Z,0
2017-11-18T00:06:10.177Z,0
2017-11-18T00:07:09.942Z,0
2017-11-18T00:08:10.204Z,0
2017-11-18T00:09:10.440Z,0
2017-11-18T00:10:10.515Z,0
2017-11-18T00:11:10.498Z,0
2017-11-18T00:12:10.250Z,0
2017-11-18T00:13:10.576Z,0
2017-11-18T00:14:10.552Z,0
2017-11-18T00:15:10.298Z,0
2017-11-18T00:16:10.308Z,0
2017-11-18T00:17:25.290Z,0
2017-11-18T00:18:25.265Z,0
2017-11-18T00:19:10.602Z,0
2017-11-18T00:20:10.646Z,0
2017-11-18T00:21:10.642Z,0
2017-11-18T00:22:10.657Z,0
2017-11-18T00:23:10.701Z,0
2017-11-18T00:24:10.805Z,0
2017-11-18T00:25:10.727Z,0
2017-11-18T00:26:25.106Z,0
2017-11-18T00:27:10.748Z,0
2017-11-18T00:28:10.740Z,0
2017-11-18T00:29:10.501Z,0
2017-11-18T00:32:10.526Z,0
2017-11-18T00:33:25.492Z,0
2017-11-18T00:34:10.829Z,0
2017-11-18T00:35:40.179Z,0
2017-11-18T00:36:10.847Z,0
2017-11-18T00:38:10.877Z,0
2017-11-18T00:39:10.911Z,0
2017-11-18T00:40:25.584Z,0
2017-11-18T00:41:10.967Z,0
2017-11-18T00:42:10.964Z,0
2017-11-18T00:43:10.938Z,0
2017-11-18T00:44:10.988Z,0
2017-11-18T00:45:10.982Z,0
2017-11-18T00:46:25.676Z,0
2017-11-18T00:47:11.051Z,0
2017-11-18T00:48:10.782Z,0
2017-11-18T00:49:25.717Z,0
2017-11-18T00:50:11.067Z,0
2017-11-18T00:51:10.848Z,0
2017-11-18T00:52:11.120Z,0
2017-11-18T00:53:11.117Z,0
2017-11-18T00:54:11.113Z,0
2017-11-18T00:55:11.147Z,0
2017-11-18T00:56:10.877Z,0
2017-11-18T00:57:11.144Z,0
2017-11-18T00:58:11.198Z,0
2017-11-18T00:59:11.233Z,0
2017-11-18T01:00:11.234Z,0
2017-11-18T01:01:10.969Z,0
2017-11-18T01:02:11.253Z,0
2017-11-18T01:03:11.247Z,0
2017-11-18T01:04:10.748Z,0
2017-11-18T01:05:40.623Z,0
2017-11-18T01:06:11.309Z,0
2017-11-18T01:07:11.317Z,0
2017-11-18T01:08:11.363Z,0
2017-11-18T01:09:11.344Z,0
2017-11-18T01:10:11.091Z,0
2017-11-18T01:11:11.140Z,0
2017-11-18T01:12:25.822Z,0
2017-11-18T01:13:11.389Z,0
2017-11-18T01:14:11.422Z,0
2017-11-18T01:15:11.428Z,0
2017-11-18T01:17:11.183Z,0
2017-11-18T01:18:11.498Z,0
2017-11-18T01:19:11.488Z,0
2017-11-18T01:20:11.502Z,0
2017-11-18T01:21:26.178Z,0
2017-11-18T01:22:26.201Z,0
2017-11-18T01:23:11.554Z,0
2017-11-18T01:24:11.587Z,0
2017-11-18T01:25:11.589Z,0
2017-11-18T01:26:26.267Z,0
2017-11-18T01:27:26.291Z,0
2017-11-18T01:28:11.650Z,0
2017-11-18T01:29:11.648Z,0
2017-11-18T01:30:11.642Z,0
2017-11-18T01:32:11.437Z,0
2017-11-18T01:33:11.689Z,0
2017-11-18T01:34:11.711Z,0
2017-11-18T01:35:11.750Z,0
2017-11-18T01:36:26.144Z,0
2017-11-18T01:37:11.495Z,0
2017-11-18T01:38:11.766Z,0
2017-11-18T01:39:11.795Z,0
2017-11-18T01:40:26.475Z,0
2017-11-18T01:41:26.472Z,0
2017-11-18T01:42:11.596Z,0
2017-11-18T01:43:11.613Z,0
2017-11-18T01:44:11.881Z,0
2017-11-18T01:45:11.876Z,0
2017-11-18T01:46:11.903Z,0
2017-11-18T01:47:12.042Z,0
2017-11-18T01:48:26.425Z,0
2017-11-18T01:49:11.678Z,0
2017-11-18T01:50:11.972Z,0
2017-11-18T01:51:11.981Z,0
2017-11-18T01:52:26.385Z,0
2017-11-18T01:53:12.005Z,0
2017-11-18T01:54:26.397Z,0
2017-11-18T01:55:26.681Z,0
2017-11-18T01:57:12.313Z,0
2017-11-18T01:58:12.056Z,0
2017-11-18T01:59:12.123Z,0
2017-11-18T02:00:11.842Z,0
2017-11-18T02:01:12.107Z,0
2017-11-18T02:02:12.130Z,0
2017-11-18T02:03:12.156Z,0
2017-11-18T02:04:26.815Z,0
2017-11-18T02:05:41.471Z,0
2017-11-18T02:06:12.208Z,0
2017-11-18T02:07:12.206Z,0
2017-11-18T02:08:26.635Z,0
2017-11-18T02:09:11.973Z,0
2017-11-18T02:10:12.004Z,0
2017-11-18T02:11:12.267Z,0
2017-11-18T02:12:12.299Z,0
2017-11-18T02:13:26.954Z,0
2017-11-18T02:14:12.411Z,0
2017-11-18T02:15:12.373Z,0
2017-11-18T02:17:12.378Z,0
2017-11-18T02:18:26.760Z,0
2017-11-18T02:19:12.422Z,0
2017-11-18T02:20:12.384Z,0
2017-11-18T02:21:12.428Z,0
2017-11-18T02:22:12.421Z,0
2017-11-18T02:23:12.432Z,0
2017-11-18T02:24:27.122Z,0
2017-11-18T02:25:12.217Z,0
2017-11-18T02:26:12.485Z,0
2017-11-18T02:27:12.494Z,0
2017-11-18T02:28:12.258Z,0
2017-11-18T02:29:12.263Z,0
2017-11-18T02:32:12.296Z,0
2017-11-18T02:33:12.354Z,0
2017-11-18T02:34:12.608Z,0
2017-11-18T02:35:27.296Z,0
2017-11-18T02:36:12.380Z,0
2017-11-18T02:37:12.665Z,0
2017-11-18T02:38:12.664Z,0
2017-11-18T02:39:12.707Z,0
2017-11-18T02:40:27.341Z,0
2017-11-18T02:41:12.711Z,0
2017-11-18T02:42:12.454Z,0
2017-11-18T02:43:12.783Z,0
2017-11-18T02:44:12.478Z,0
2017-11-18T02:45:12.809Z,0
2017-11-18T02:46:12.785Z,0
2017-11-18T02:47:27.457Z,0
2017-11-18T02:48:12.797Z,0
2017-11-18T02:49:12.835Z,0
2017-11-18T02:50:12.872Z,0
2017-11-18T02:51:12.604Z,0
2017-11-18T02:52:42.159Z,0
2017-11-18T02:53:12.875Z,0
2017-11-18T02:54:12.631Z,0
2017-11-18T02:55:27.312Z,0
2017-11-18T02:56:27.578Z,0
2017-11-18T02:58:12.925Z,0
2017-11-18T02:59:27.749Z,0
2017-11-18T03:00:12.467Z,0
2017-11-18T03:01:12.997Z,0
2017-11-18T03:02:12.726Z,0
2017-11-18T03:03:27.682Z,0
2017-11-18T03:04:13.026Z,0
2017-11-18T03:05:12.788Z,0
2017-11-18T03:06:12.798Z,0
2017-11-18T03:07:13.078Z,0
2017-11-18T03:08:13.107Z,0
2017-11-18T03:09:13.114Z,0
2017-11-18T03:10:13.141Z,0
2017-11-18T03:11:42.463Z,0
2017-11-18T03:12:27.550Z,0
2017-11-18T03:13:13.204Z,0
2017-11-18T03:14:13.184Z,0
2017-11-18T03:15:13.192Z,0
2017-11-18T03:16:27.867Z,0
2017-11-18T03:17:13.238Z,0
2017-11-18T03:18:13.252Z,0
2017-11-18T03:20:13.275Z,0
2017-11-18T03:21:13.303Z,0
2017-11-18T03:22:13.027Z,0
2017-11-18T03:23:13.328Z,0
2017-11-18T03:24:13.044Z,0
2017-11-18T03:25:13.363Z,0
2017-11-18T03:26:28.019Z,0
2017-11-18T03:27:13.379Z,0
2017-11-18T03:28:13.395Z,0
2017-11-18T03:29:13.387Z,0
2017-11-18T03:30:13.427Z,0
2017-11-18T03:31:28.095Z,0
2017-11-18T03:32:13.465Z,0
2017-11-18T03:33:13.205Z,0
2017-11-18T03:34:13.487Z,0
2017-11-18T03:35:13.460Z,0
2017-11-18T03:36:13.249Z,0
2017-11-18T03:37:13.535Z,0
2017-11-18T03:38:13.263Z,0
2017-11-18T03:39:13.562Z,0
2017-11-18T03:40:13.554Z,0
2017-11-18T03:42:13.336Z,0
2017-11-18T03:43:28.265Z,0
2017-11-18T03:44:13.628Z,0
2017-11-18T03:45:13.615Z,0
2017-11-18T03:46:28.365Z,0
2017-11-18T03:47:28.328Z,0
2017-11-18T03:48:13.691Z,0
2017-11-18T03:49:13.719Z,0
2017-11-18T03:50:13.722Z,0
2017-11-18T03:52:13.459Z,0
2017-11-18T03:53:13.736Z,0
2017-11-18T03:54:13.810Z,0
2017-11-18T03:55:28.427Z,0
2017-11-18T03:56:13.795Z,0
2017-11-18T03:57:13.789Z,0
2017-11-18T03:58:13.556Z,0
2017-11-18T03:59:28.500Z,0
2017-11-18T04:00:13.865Z,0
2017-11-18T04:01:13.607Z,0
2017-11-18T04:02:28.529Z,0
2017-11-18T04:03:13.902Z,0
2017-11-18T04:04:13.654Z,0
2017-11-18T04:05:28.598Z,0
2017-11-18T04:07:13.967Z,0
2017-11-18T04:08:13.727Z,0
2017-11-18T04:09:13.995Z,0
2017-11-18T04:10:13.725Z,0
2017-11-18T04:11:13.765Z,0
2017-11-18T04:12:14.068Z,0
2017-11-18T04:13:13.770Z,0
2017-11-18T04:14:14.061Z,0
2017-11-18T04:15:28.747Z,0
2017-11-18T04:16:14.106Z,0
2017-11-18T04:17:14.116Z,0
2017-11-18T04:18:13.839Z,0
2017-11-18T04:19:13.861Z,0
2017-11-18T04:20:28.825Z,0
2017-11-18T04:21:13.950Z,0
2017-11-18T04:23:28.866Z,0
2017-11-18T04:24:13.942Z,0
2017-11-18T04:25:13.941Z,0
2017-11-18T04:26:14.233Z,0
2017-11-18T04:27:14.239Z,0
2017-11-18T04:28:28.928Z,0
2017-11-18T04:29:14.354Z,0
2017-11-18T04:30:28.969Z,0
2017-11-18T04:31:28.982Z,0
2017-11-18T04:32:14.353Z,0
2017-11-18T04:33:14.355Z,0
2017-11-18T04:34:13.830Z,0
2017-11-18T04:35:29.012Z,0
2017-11-18T04:37:14.413Z,0
2017-11-18T04:38:29.062Z,0
2017-11-18T04:39:14.175Z,0
2017-11-18T04:40:14.442Z,0
2017-11-18T04:41:14.471Z,0
2017-11-18T04:42:14.488Z,0
2017-11-18T04:43:14.473Z,0
2017-11-18T04:44:14.524Z,0
2017-11-18T04:45:14.534Z,0
2017-11-18T04:46:29.194Z,0
2017-11-18T04:47:14.543Z,0
2017-11-18T04:48:29.225Z,0
2017-11-18T04:49:14.580Z,0
2017-11-18T04:50:14.607Z,0
2017-11-18T04:51:14.628Z,0
2017-11-18T04:52:14.639Z,0
2017-11-18T04:53:14.653Z,0
2017-11-18T04:54:14.383Z,0
2017-11-18T04:58:14.753Z,0
2017-11-18T04:59:14.731Z,0
2017-11-18T05:00:14.752Z,0
2017-11-18T05:01:14.762Z,0
2017-11-18T05:02:29.432Z,0
2017-11-18T05:03:14.535Z,0
2017-11-18T05:04:14.798Z,0
2017-11-18T05:05:29.473Z,0
2017-11-18T05:06:29.504Z,0
2017-11-18T05:07:14.852Z,0
2017-11-18T05:08:14.867Z,0
2017-11-18T05:09:14.879Z,0
2017-11-18T05:11:14.919Z,0
2017-11-18T05:12:14.658Z,0
2017-11-18T05:13:29.352Z,0
2017-11-18T05:14:14.677Z,0
2017-11-18T05:15:29.622Z,0
2017-11-18T05:16:14.995Z,0
2017-11-18T05:17:15.122Z,0
2017-11-18T05:18:29.662Z,0
2017-11-18T05:19:15.018Z,0
2017-11-18T05:20:15.048Z,0
2017-11-18T05:21:14.788Z,0
2017-11-18T05:22:14.832Z,0
2017-11-18T05:24:15.152Z,0
2017-11-18T05:25:14.878Z,0
2017-11-18T05:26:29.810Z,0
2017-11-18T05:27:29.820Z,0
2017-11-18T05:28:14.647Z,0
2017-11-18T05:29:15.206Z,0
2017-11-18T05:30:15.216Z,0
2017-11-18T05:31:15.196Z,0
2017-11-18T05:32:14.966Z,0
2017-11-18T05:33:15.227Z,0
2017-11-18T05:34:29.939Z,0
2017-11-18T05:35:15.012Z,0
2017-11-18T05:36:15.281Z,0
2017-11-18T05:37:29.981Z,0
2017-11-18T05:38:15.052Z,0
2017-11-18T05:39:29.997Z,0
2017-11-18T05:40:29.776Z,0
2017-11-18T05:41:15.094Z,0
2017-11-18T05:43:15.399Z,0
2017-11-18T05:44:15.432Z,0
2017-11-18T05:45:15.451Z,0
2017-11-18T05:46:15.424Z,0
2017-11-18T05:47:15.467Z,0
2017-11-18T05:48:15.452Z,0
2017-11-18T05:49:15.493Z,0
2017-11-18T05:50:30.158Z,0
2017-11-18T05:53:15.277Z,0
2017-11-18T05:54:29.969Z,0
2017-11-18T05:55:15.587Z,0
2017-11-18T05:56:30.267Z,0
2017-11-18T05:57:30.260Z,0
2017-11-18T05:58:30.288Z,0
2017-11-18T05:59:15.651Z,0
2017-11-18T06:00:30.314Z,0
2017-11-18T06:01:15.664Z,0
2017-11-18T06:03:15.715Z,0
2017-11-18T06:04:15.451Z,0
2017-11-18T06:05:15.743Z,0
2017-11-18T06:06:30.411Z,0
2017-11-18T06:08:15.803Z,0
2017-11-18T06:09:15.511Z,0
2017-11-18T06:10:15.799Z,0
2017-11-18T06:11:15.861Z,0
2017-11-18T06:12:15.854Z,0
2017-11-18T06:13:15.873Z,0
2017-11-18T06:14:15.617Z,0
2017-11-18T06:15:15.863Z,0
2017-11-18T06:16:15.900Z,0
2017-11-18T06:17:15.936Z,0
2017-11-18T06:18:15.959Z,0
2017-11-18T06:19:15.672Z,0
2017-11-18T06:20:15.982Z,0
2017-11-18T06:21:45.273Z,0
2017-11-18T06:22:30.632Z,0
2017-11-18T06:23:16.010Z,0
2017-11-18T06:24:16.081Z,0
2017-11-18T06:25:16.034Z,0
2017-11-18T06:26:16.080Z,0
2017-11-18T06:27:16.083Z,0
2017-11-18T06:28:16.075Z,0
2017-11-18T06:29:16.112Z,0
2017-11-18T06:30:16.232Z,0
2017-11-18T06:31:16.138Z,0
2017-11-18T06:32:15.632Z,0
2017-11-18T06:33:16.281Z,5
2017-11-18T06:34:16.171Z,5
2017-11-18T06:35:16.201Z,5
2017-11-18T06:36:30.850Z,5
2017-11-18T06:37:16.218Z,0
2017-11-18T06:38:16.268Z,0
2017-11-18T06:39:16.257Z,0
2017-11-18T06:40:16.279Z,0
2017-11-18T06:41:16.281Z,0
2017-11-18T06:42:31.000Z,5
2017-11-18T06:43:16.334Z,5
2017-11-18T06:44:16.061Z,5
2017-11-18T06:45:16.336Z,5
2017-11-18T06:46:16.398Z,5
2017-11-18T06:47:16.388Z,10
2017-11-18T06:48:16.408Z,10
2017-11-18T06:49:16.438Z,10
2017-11-18T06:50:16.462Z,15
2017-11-18T06:51:16.548Z,15
2017-11-18T06:52:16.155Z,20
2017-11-18T06:53:31.134Z,20
2017-11-18T06:54:30.905Z,20
2017-11-18T06:55:16.506Z,20
2017-11-18T06:56:16.263Z,20
2017-11-18T06:57:16.527Z,20
2017-11-18T06:58:16.548Z,20
2017-11-18T06:59:31.229Z,20
2017-11-18T07:00:16.569Z,20
2017-11-18T07:01:16.457Z,20
2017-11-18T07:02:16.616Z,25
2017-11-18T07:03:31.279Z,25
2017-11-18T07:04:31.285Z,25
2017-11-18T07:05:16.644Z,25
2017-11-18T07:06:31.062Z,30
2017-11-18T07:07:16.695Z,30
2017-11-18T07:08:31.383Z,30
2017-11-18T07:11:16.830Z,30
2017-11-18T07:12:16.501Z,30
2017-11-18T07:13:16.782Z,35
2017-11-18T07:14:16.811Z,35
2017-11-18T07:15:31.458Z,35
2017-11-18T07:16:16.573Z,35
2017-11-18T07:17:16.571Z,35
2017-11-18T07:18:16.867Z,35
2017-11-18T07:19:31.539Z,40
2017-11-18T07:20:16.901Z,40
2017-11-18T07:21:31.553Z,40
2017-11-18T07:22:16.634Z,40
2017-11-18T07:23:16.925Z,40
2017-11-18T07:24:16.944Z,45
2017-11-18T07:25:46.278Z,45
2017-11-18T07:27:17.007Z,50
2017-11-18T07:28:17.020Z,50
2017-11-18T07:29:17.025Z,50
2017-11-18T07:30:17.040Z,55
2017-11-18T07:31:17.040Z,55
2017-11-18T07:32:17.063Z,60
2017-11-18T07:33:31.767Z,60
2017-11-18T07:34:16.832Z,65
2017-11-18T07:35:17.125Z,65
2017-11-18T07:36:31.798Z,70
2017-11-18T07:37:17.154Z,70
2017-11-18T07:38:17.173Z,70
2017-11-18T07:39:17.171Z,70
2017-11-18T07:40:17.190Z,65
2017-11-18T07:41:31.885Z,60
2017-11-18T07:42:31.867Z,60
2017-11-18T07:43:17.226Z,55
2017-11-18T07:44:17.270Z,55
2017-11-18T07:45:17.300Z,50
2017-11-18T07:46:17.058Z,50
2017-11-18T07:47:17.301Z,45
2017-11-18T07:48:17.310Z,45
2017-11-18T07:49:17.394Z,45
2017-11-18T07:51:17.346Z,45
2017-11-18T07:52:32.075Z,40
2017-11-18T07:53:32.065Z,45
2017-11-18T07:54:17.418Z,40
2017-11-18T07:55:17.175Z,40
2017-11-18T07:56:46.780Z,45
2017-11-18T07:57:32.134Z,45
2017-11-18T07:58:17.231Z,45
2017-11-18T07:59:32.146Z,45
2017-11-18T08:01:17.532Z,40
2017-11-18T08:02:17.558Z,40
2017-11-18T08:03:31.958Z,40
2017-11-18T08:04:17.558Z,40
2017-11-18T08:05:17.583Z,40
2017-11-18T08:06:32.249Z,35
2017-11-18T08:07:17.636Z,35
2017-11-18T08:08:17.643Z,40
2017-11-18T08:09:17.665Z,40
2017-11-18T08:10:17.686Z,40
2017-11-18T08:11:17.441Z,45
2017-11-18T08:12:31.823Z,45
2017-11-18T08:14:17.738Z,45
2017-11-18T08:15:17.753Z,45
2017-11-18T08:16:17.736Z,40
2017-11-18T08:17:17.774Z,40
2017-11-18T08:18:17.560Z,40
2017-11-18T08:19:17.810Z,35
2017-11-18T08:20:17.809Z,35
2017-11-18T08:21:17.862Z,35
2017-11-18T08:22:17.847Z,35
2017-11-18T08:23:17.884Z,35
2017-11-18T08:24:17.919Z,35
2017-11-18T08:25:17.900Z,35
2017-11-18T08:26:17.913Z,35
2017-11-18T08:27:18.057Z,35
2017-11-18T08:28:32.347Z,35
2017-11-18T08:29:32.664Z,35
2017-11-18T08:30:18.005Z,35
2017-11-18T08:31:18.012Z,35
2017-11-18T08:32:17.773Z,35
2017-11-18T08:33:32.702Z,35
2017-11-18T08:34:18.072Z,35
2017-11-18T08:35:32.711Z,40
2017-11-18T08:36:18.106Z,40
2017-11-18T08:37:18.108Z,45
2017-11-18T08:38:18.126Z,45
2017-11-18T08:39:17.889Z,45
2017-11-18T08:40:17.923Z,45
2017-11-18T08:41:32.838Z,40
2017-11-18T08:42:17.918Z,40
2017-11-18T08:43:17.961Z,40
2017-11-18T08:44:32.360Z,45
2017-11-18T08:45:32.891Z,40
2017-11-18T08:46:18.293Z,40
2017-11-18T08:47:18.042Z,40
2017-11-18T08:48:18.284Z,40
2017-11-18T08:49:18.046Z,40
2017-11-18T08:50:18.294Z,40
2017-11-18T08:51:18.334Z,40
2017-11-18T08:52:18.337Z,40
2017-11-18T08:53:47.669Z,40
2017-11-18T08:54:18.397Z,40
2017-11-18T08:55:18.412Z,40
2017-11-18T08:56:32.816Z,40
2017-11-18T08:57:18.441Z,40
2017-11-18T08:58:33.110Z,40
2017-11-18T08:59:18.456Z,40
2017-11-18T09:00:33.121Z,40
2017-11-18T09:01:32.740Z,40
2017-11-18T09:02:18.525Z,40
2017-11-18T09:03:18.532Z,45
2017-11-18T09:04:18.539Z,45
2017-11-18T09:05:18.290Z,45
2017-11-18T09:06:18.574Z,40
2017-11-18T09:07:18.585Z,40
2017-11-18T09:09:18.735Z,40
2017-11-18T09:10:18.639Z,40
2017-11-18T09:11:18.719Z,40
2017-11-18T09:12:33.323Z,40
2017-11-18T09:13:18.434Z,40
2017-11-18T09:14:33.387Z,35
2017-11-18T09:15:18.778Z,35
2017-11-18T09:16:33.408Z,35
2017-11-18T09:17:33.425Z,30
2017-11-18T09:18:18.821Z,30
2017-11-18T09:19:18.813Z,30
2017-11-18T09:20:33.219Z,30
2017-11-18T09:21:18.555Z,30
2017-11-18T09:22:18.938Z,30
2017-11-18T09:23:33.516Z,30
2017-11-18T09:24:18.872Z,30
2017-11-18T09:25:18.900Z,30
2017-11-18T09:26:18.885Z,30
2017-11-18T09:27:18.924Z,30
2017-11-18T09:28:18.926Z,35
2017-11-18T09:29:18.950Z,35
2017-11-18T09:30:18.970Z,35
2017-11-18T09:31:33.404Z,35
2017-11-18T09:32:18.985Z,35
2017-11-18T09:33:19.052Z,35
2017-11-18T09:34:19.016Z,35
2017-11-18T09:35:33.453Z,35
2017-11-18T09:36:19.070Z,30
2017-11-18T09:37:19.110Z,30
2017-11-18T09:38:18.840Z,30
2017-11-18T09:39:33.779Z,30
2017-11-18T09:40:19.140Z,30
2017-11-18T09:41:33.828Z,30
2017-11-18T09:42:19.183Z,30
2017-11-18T09:43:19.224Z,30
2017-11-18T09:44:18.687Z,30
2017-11-18T09:45:19.245Z,30
2017-11-18T09:46:33.893Z,30
2017-11-18T09:47:19.266Z,30
2017-11-18T09:48:33.655Z,30
2017-11-18T09:49:19.072Z,30
2017-11-18T09:50:19.313Z,30
2017-11-18T09:51:19.335Z,30
2017-11-18T09:52:19.078Z,30
2017-11-18T09:53:19.342Z,30
2017-11-18T09:54:19.398Z,30
2017-11-18T09:55:19.491Z,30
2017-11-18T09:56:19.145Z,30
2017-11-18T09:57:19.438Z,30
2017-11-18T09:58:34.076Z,30
2017-11-18T09:59:19.200Z,30
2017-11-18T10:00:19.442Z,30
2017-11-18T10:01:19.488Z,30
2017-11-18T10:03:34.174Z,30
2017-11-18T10:04:19.533Z,30
2017-11-18T10:07:19.333Z,30
2017-11-18T10:08:19.358Z,30
2017-11-18T10:09:19.625Z,30
2017-11-18T10:10:19.639Z,30
2017-11-18T10:11:19.650Z,30
2017-11-18T10:12:19.662Z,30
2017-11-18T10:13:34.354Z,25
2017-11-18T10:14:19.711Z,25
2017-11-18T10:15:19.721Z,25
2017-11-18T10:16:34.400Z,30
2017-11-18T10:17:19.745Z,30
2017-11-18T10:18:19.748Z,30
2017-11-18T10:19:34.450Z,30
2017-11-18T10:20:19.811Z,30
2017-11-18T10:21:34.478Z,30
2017-11-18T10:22:19.816Z,30
2017-11-18T10:23:19.855Z,30
2017-11-18T10:24:34.540Z,30
2017-11-18T10:25:19.870Z,30
2017-11-18T10:26:19.917Z,30
2017-11-18T10:27:19.927Z,30
2017-11-18T10:28:19.917Z,30
2017-11-18T10:29:19.969Z,30
2017-11-18T10:30:19.966Z,30
2017-11-18T10:31:20.035Z,30
2017-11-18T10:32:19.734Z,30
2017-11-18T10:33:20.050Z,30
2017-11-18T10:34:20.046Z,30
2017-11-18T10:35:34.734Z,30
2017-11-18T10:36:20.047Z,30
2017-11-18T10:37:20.103Z,25
2017-11-18T10:39:20.125Z,25
2017-11-18T10:40:20.140Z,25
2017-11-18T10:41:20.153Z,25
2017-11-18T10:42:20.180Z,25
2017-11-18T10:43:34.838Z,25
2017-11-18T10:44:19.957Z,25
2017-11-18T10:45:19.970Z,25
2017-11-18T10:46:20.243Z,25
2017-11-18T10:47:20.263Z,25
2017-11-18T10:48:20.270Z,25
2017-11-18T10:49:20.283Z,25
2017-11-18T10:50:20.354Z,25
2017-11-18T10:51:34.992Z,25
2017-11-18T10:52:20.306Z,25
2017-11-18T10:53:20.361Z,25
2017-11-18T10:54:20.357Z,25
2017-11-18T10:55:49.722Z,25
2017-11-18T10:56:20.413Z,25
2017-11-18T10:57:20.407Z,25
2017-11-18T10:58:34.836Z,25
2017-11-18T10:59:35.148Z,25
2017-11-18T11:00:20.496Z,25
2017-11-18T11:01:20.596Z,25
2017-11-18T11:02:35.182Z,25
2017-11-18T11:03:35.176Z,20
2017-11-18T11:04:20.526Z,20
2017-11-18T11:05:20.562Z,20
2017-11-18T11:07:35.258Z,20
2017-11-18T11:08:35.269Z,20
2017-11-18T11:09:20.353Z,20
2017-11-18T11:10:20.662Z,20
2017-11-18T11:11:20.385Z,20
2017-11-18T11:12:35.343Z,20
2017-11-18T11:13:20.418Z,20
2017-11-18T11:15:35.375Z,25
2017-11-18T11:16:20.776Z,20
2017-11-18T11:17:35.420Z,20
2017-11-18T11:18:35.444Z,20
2017-11-18T11:19:35.451Z,20
2017-11-18T11:20:20.805Z,20
2017-11-18T11:21:20.811Z,20
2017-11-18T11:22:20.867Z,25
2017-11-18T11:23:20.866Z,25
2017-11-18T11:24:20.852Z,25
2017-11-18T11:25:20.377Z,25
2017-11-18T11:26:20.910Z,25
2017-11-18T11:27:20.920Z,25
2017-11-18T11:28:35.336Z,30
2017-11-18T11:29:20.959Z,30
2017-11-18T11:30:35.629Z,30
2017-11-18T11:31:20.724Z,30
2017-11-18T11:32:21.016Z,35
2017-11-18T11:33:21.020Z,35
2017-11-18T11:34:21.065Z,35
2017-11-18T11:35:20.805Z,35
2017-11-18T11:36:21.070Z,35
2017-11-18T11:37:35.731Z,35
2017-11-18T11:39:21.122Z,35
2017-11-18T11:40:20.861Z,40
2017-11-18T11:41:21.156Z,40
2017-11-18T11:42:20.922Z,40
2017-11-18T11:43:21.194Z,40
2017-11-18T11:45:21.229Z,40
2017-11-18T11:46:21.256Z,40
2017-11-18T11:47:21.268Z,40
2017-11-18T11:48:21.292Z,40
2017-11-18T11:49:21.269Z,40
2017-11-18T11:50:21.062Z,40
2017-11-18T11:51:21.064Z,40
2017-11-18T11:52:21.329Z,35
2017-11-18T11:53:21.385Z,35
2017-11-18T11:54:36.024Z,30
2017-11-18T11:55:21.437Z,35
2017-11-18T11:56:21.409Z,35
2017-11-18T11:57:21.186Z,35
2017-11-18T11:58:21.453Z,35
2017-11-18T11:59:21.197Z,40
2017-11-18T12:00:21.474Z,40
2017-11-18T12:01:21.487Z,40
2017-11-18T12:02:21.504Z,45
2017-11-18T12:03:21.529Z,45
2017-11-18T12:04:21.550Z,50
2017-11-18T12:05:21.551Z,50
2017-11-18T12:06:21.679Z,45
2017-11-18T12:07:21.683Z,50
2017-11-18T12:08:21.621Z,50
2017-11-18T12:09:21.655Z,50
2017-11-18T12:10:50.978Z,55
2017-11-18T12:11:21.676Z,55
2017-11-18T12:12:21.684Z,55
2017-11-18T12:13:21.713Z,60
2017-11-18T12:14:21.731Z,60
2017-11-18T12:15:21.726Z,60
2017-11-18T12:16:21.492Z,65
2017-11-18T12:17:36.166Z,60
2017-11-18T12:18:21.833Z,55
2017-11-18T12:19:36.463Z,50
2017-11-18T12:20:21.807Z,50
2017-11-18T12:21:36.257Z,50
2017-11-18T12:22:36.517Z,50
2017-11-18T12:23:21.900Z,50
2017-11-18T12:24:36.556Z,50
2017-11-18T12:25:21.923Z,50
2017-11-18T12:26:36.599Z,50
2017-11-18T12:27:21.929Z,50
2017-11-18T12:28:21.783Z,50
2017-11-18T12:29:21.975Z,50
2017-11-18T12:30:22.011Z,55
2017-11-18T12:31:22.024Z,55
2017-11-18T12:32:21.785Z,60
2017-11-18T12:33:22.041Z,60
2017-11-18T12:34:36.546Z,60
2017-11-18T12:35:22.073Z,60
2017-11-18T12:36:36.741Z,60
2017-11-18T12:37:22.113Z,60
2017-11-18T12:39:21.902Z,60
2017-11-18T12:40:22.180Z,60
2017-11-18T12:41:36.871Z,55
2017-11-18T12:43:22.260Z,50
2017-11-18T12:44:36.897Z,50
2017-11-18T12:45:36.940Z,50
2017-11-18T12:46:22.289Z,50
2017-11-18T12:47:36.938Z,50
2017-11-18T12:48:22.072Z,50
2017-11-18T12:49:22.310Z,50
2017-11-18T12:50:22.366Z,45
2017-11-18T12:51:22.375Z,45
2017-11-18T12:52:22.387Z,45
2017-11-18T12:53:22.404Z,40
2017-11-18T12:54:22.157Z,40
2017-11-18T12:55:22.434Z,35
2017-11-18T12:56:22.477Z,35
2017-11-18T12:57:22.521Z,30
2017-11-18T12:58:22.233Z,30
2017-11-18T12:59:22.503Z,30
2017-11-18T13:00:22.267Z,30
2017-11-18T13:01:22.526Z,30
2017-11-18T13:02:22.291Z,30
2017-11-18T13:03:22.586Z,30
2017-11-18T13:04:22.581Z,25
2017-11-18T13:05:22.618Z,25
2017-11-18T13:07:37.287Z,25
2017-11-18T13:08:22.661Z,25
2017-11-18T13:09:22.679Z,25
2017-11-18T13:10:37.376Z,25
2017-11-18T13:11:22.702Z,20
2017-11-18T13:12:22.754Z,20
2017-11-18T13:13:37.396Z,20
2017-11-18T13:14:22.516Z,20
2017-11-18T13:15:22.809Z,20
2017-11-18T13:16:22.812Z,20
2017-11-18T13:17:22.828Z,25
2017-11-18T13:18:22.571Z,25
2017-11-18T13:19:22.849Z,25
2017-11-18T13:20:22.883Z,25
2017-11-18T13:21:22.619Z,30
2017-11-18T13:22:22.913Z,30
2017-11-18T13:23:22.918Z,30
2017-11-18T13:24:22.672Z,35
2017-11-18T13:25:22.967Z,35
2017-11-18T13:26:22.973Z,35
2017-11-18T13:27:37.666Z,35
2017-11-18T13:28:22.728Z,35
2017-11-18T13:29:37.419Z,40
2017-11-18T13:30:37.700Z,40
2017-11-18T13:31:23.067Z,40
2017-11-18T13:32:23.098Z,40
2017-11-18T13:33:22.578Z,45
2017-11-18T13:34:23.131Z,45
2017-11-18T13:35:23.142Z,45
2017-11-18T13:36:22.887Z,45
2017-11-18T13:37:23.161Z,45
2017-11-18T13:38:23.184Z,45
2017-11-18T13:39:23.230Z,45
2017-11-18T13:40:23.210Z,45
2017-11-18T13:41:23.264Z,45
2017-11-18T13:43:22.982Z,40
2017-11-18T13:44:37.957Z,40
2017-11-18T13:45:37.963Z,40
2017-11-18T13:46:37.981Z,40
2017-11-18T13:47:23.057Z,40
2017-11-18T13:48:23.390Z,40
2017-11-18T13:49:23.369Z,35
2017-11-18T13:50:23.127Z,35
2017-11-18T13:51:23.405Z,35
2017-11-18T13:52:23.423Z,35
2017-11-18T13:53:23.181Z,30
2017-11-18T13:54:23.172Z,30
2017-11-18T13:55:23.207Z,30
2017-11-18T13:56:23.240Z,30
2017-11-18T13:57:23.520Z,30
2017-11-18T13:58:23.530Z,30
2017-11-18T13:59:23.559Z,30
2017-11-18T14:00:38.223Z,25
2017-11-18T14:01:37.970Z,25
2017-11-18T14:02:23.343Z,25
2017-11-18T14:03:23.638Z,25
2017-11-18T14:04:38.032Z,25
2017-11-18T14:05:23.652Z,25
2017-11-18T14:06:38.343Z,25
2017-11-18T14:07:23.688Z,25
2017-11-18T14:08:38.355Z,20
2017-11-18T14:09:38.367Z,20
2017-11-18T14:10:23.724Z,20
2017-11-18T14:11:23.773Z,20
2017-11-18T14:12:23.770Z,20
2017-11-18T14:13:53.094Z,20
2017-11-18T14:14:23.809Z,20
2017-11-18T14:15:23.836Z,15
2017-11-18T14:16:38.508Z,15
2017-11-18T14:17:23.854Z,15
2017-11-18T14:18:23.874Z,15
2017-11-18T14:19:23.906Z,10
2017-11-18T14:20:38.290Z,10
2017-11-18T14:21:23.934Z,10
2017-11-18T14:22:23.948Z,5
2017-11-18T14:24:38.632Z,5
2017-11-18T14:25:23.968Z,5
2017-11-18T14:26:24.012Z,0
2017-11-18T14:27:24.070Z,0
2017-11-18T14:28:38.733Z,0
2017-11-18T14:29:24.067Z,0
2017-11-18T14:30:23.806Z,0
2017-11-18T14:31:24.172Z,0
2017-11-18T14:33:24.147Z,0
2017-11-18T14:34:24.151Z,0
2017-11-18T14:35:23.872Z,0
2017-11-18T14:36:23.919Z,0
2017-11-18T14:38:24.201Z,0
2017-11-18T14:39:23.970Z,0
2017-11-18T14:40:24.294Z,0
2017-11-18T14:41:24.277Z,0
2017-11-18T14:42:24.268Z,0
2017-11-18T14:43:38.967Z,0
2017-11-18T14:44:24.292Z,0
2017-11-18T14:45:24.355Z,0
2017-11-18T14:47:24.364Z,0
2017-11-18T14:48:39.046Z,0
2017-11-18T14:49:24.403Z,0
2017-11-18T14:50:24.383Z,0
2017-11-18T14:51:24.453Z,0
2017-11-18T14:52:24.453Z,0
2017-11-18T14:53:39.146Z,0
2017-11-18T14:54:39.130Z,0
2017-11-18T14:55:24.496Z,0
2017-11-18T14:59:24.571Z,0
2017-11-18T15:00:39.261Z,0
2017-11-18T15:01:24.611Z,0
2017-11-18T15:02:24.642Z,0
2017-11-18T15:03:24.643Z,0
2017-11-18T15:04:39.312Z,0
2017-11-18T15:05:24.670Z,0
2017-11-18T15:06:24.441Z,0
2017-11-18T15:07:39.355Z,0
2017-11-18T15:08:39.115Z,0
2017-11-18T15:09:24.735Z,0
2017-11-18T15:10:24.777Z,0
2017-11-18T15:11:24.808Z,0
2017-11-18T15:12:39.465Z,0
2017-11-18T15:14:24.844Z,0
2017-11-18T15:15:24.853Z,0
2017-11-18T15:16:24.958Z,0
2017-11-18T15:17:24.857Z,0
2017-11-18T15:19:39.550Z,0
2017-11-18T15:21:39.590Z,0
2017-11-18T15:23:24.979Z,0
2017-11-18T15:24:24.966Z,0
2017-11-18T15:25:25.011Z,0
2017-11-18T15:26:25.027Z,0
2017-11-18T15:27:24.879Z,0